createdAt,value
2023-03-19T00:01:40.065Z,4.50
2023-03-19T00:04:09.169Z,4.00
2023-03-19T00:06:38.006Z,5.00
2023-03-19T00:09:07.275Z,4.30
2023-03-19T00:11:36.236Z,5.50
2023-03-19T00:14:06.549Z,6.90
2023-03-19T00:16:35.940Z,5.60
2023-03-19T00:19:05.555Z,6.40
2023-03-19T00:21:35.226Z,4.30
2023-03-19T00:24:04.780Z,5.40
2023-03-19T00:26:34.780Z,5.40
2023-03-19T00:29:05.237Z,5.70
2023-03-19T00:31:35.241Z,3.90
2023-03-19T00:34:04.484Z,5.00
2023-03-19T00:36:33.929Z,4.20
2023-03-19T00:39:04.958Z,4.40
2023-03-19T00:41:34.700Z,3.70
2023-03-19T00:44:04.617Z,4.40
2023-03-19T00:46:34.564Z,4.70
2023-03-19T00:49:03.748Z,4.30
2023-03-19T00:51:33.280Z,3.60
2023-03-19T00:54:02.125Z,5.20
2023-03-19T00:56:30.997Z,6.40
2023-03-19T00:58:59.944Z,5.20
2023-03-19T01:01:29.107Z,6.80
2023-03-19T01:03:59.897Z,4.90
2023-03-19T01:06:29.203Z,3.80
2023-03-19T01:08:58.503Z,3.50
2023-03-19T01:11:27.177Z,4.70
2023-03-19T01:13:56.669Z,3.60
2023-03-19T01:16:25.222Z,4.40
2023-03-19T01:18:54.258Z,3.60
2023-03-19T01:21:23.241Z,5.20
2023-03-19T01:23:55.013Z,3.90
2023-03-19T01:26:24.487Z,4.40
2023-03-19T01:28:53.736Z,4.50
2023-03-19T01:31:22.329Z,4.20
2023-03-19T01:33:52.056Z,5.00
2023-03-19T01:36:20.975Z,5.30
2023-03-19T01:38:49.829Z,4.10
2023-03-19T01:41:18.689Z,5.60
2023-03-19T01:43:47.256Z,4.70
2023-03-19T01:46:22.102Z,3.50
2023-03-19T01:48:53.890Z,3.60
2023-03-19T01:51:26.987Z,4.70
2023-03-19T01:54:01.759Z,6.20
2023-03-19T01:56:33.791Z,5.20
2023-03-19T01:59:16.304Z,6.20
2023-03-19T02:01:57.619Z,5.10
2023-03-19T02:04:27.787Z,3.50
2023-03-19T02:06:58.219Z,5.40
2023-03-19T02:09:29.053Z,4.10
2023-03-19T02:11:58.431Z,4.40
2023-03-19T02:14:26.967Z,4.60
2023-03-19T02:16:56.395Z,5.70
2023-03-19T02:19:48.890Z,4.50
2023-03-19T02:22:22.550Z,4.20
2023-03-19T02:24:59.372Z,4.90
2023-03-19T02:27:28.265Z,4.90
2023-03-19T02:29:56.893Z,4.80
2023-03-19T02:32:26.614Z,5.40
2023-03-19T02:34:55.331Z,6.60
2023-03-19T02:37:29.360Z,4.90
2023-03-19T02:40:11.617Z,5.60
2023-03-19T02:42:40.245Z,4.30
2023-03-19T02:45:09.475Z,5.10
2023-03-19T02:47:37.977Z,4.10
2023-03-19T02:50:08.192Z,4.30
2023-03-19T02:52:37.103Z,4.50
2023-03-19T02:55:06.758Z,4.20
2023-03-19T02:57:35.608Z,4.10
2023-03-19T03:00:07.024Z,3.40
2023-03-19T03:02:35.524Z,3.10
2023-03-19T03:05:04.851Z,4.80
2023-03-19T03:07:33.930Z,3.50
2023-03-19T03:10:02.506Z,3.40
2023-03-19T03:12:31.875Z,5.10
2023-03-19T03:15:01.539Z,4.50
2023-03-19T03:17:30.331Z,4.80
2023-03-19T03:19:59.128Z,4.50
2023-03-19T03:22:28.131Z,4.50
2023-03-19T03:24:57.489Z,5.10
2023-03-19T03:27:27.633Z,4.80
2023-03-19T03:29:57.125Z,3.20
2023-03-19T03:32:27.090Z,4.10
2023-03-19T03:34:55.960Z,4.30
2023-03-19T03:37:24.982Z,4.90
2023-03-19T03:39:54.207Z,3.60
2023-03-19T03:42:23.372Z,4.20
2023-03-19T03:44:52.410Z,4.00
2023-03-19T03:47:21.615Z,4.20
2023-03-19T03:49:50.516Z,5.40
2023-03-19T03:52:19.619Z,3.20
2023-03-19T03:54:48.441Z,3.90
2023-03-19T03:57:17.795Z,3.90
2023-03-19T03:59:46.929Z,3.90
2023-03-19T04:02:16.040Z,4.70
2023-03-19T04:04:44.926Z,6.20
2023-03-19T04:07:14.707Z,6.60
2023-03-19T04:09:43.858Z,7.10
2023-03-19T04:12:14.362Z,6.70
2023-03-19T04:14:43.616Z,6.60
2023-03-19T04:17:13.019Z,4.30
2023-03-19T04:19:43.808Z,4.90
2023-03-19T04:22:13.668Z,4.10
2023-03-19T04:24:42.829Z,5.80
2023-03-19T04:27:11.768Z,4.60
2023-03-19T04:29:40.618Z,4.70
2023-03-19T04:32:09.746Z,4.00
2023-03-19T04:34:38.708Z,3.80
2023-03-19T04:37:10.663Z,4.30
2023-03-19T04:39:39.424Z,3.50
2023-03-19T04:42:08.136Z,4.20
2023-03-19T04:44:38.214Z,3.90
2023-03-19T04:47:07.325Z,3.80
2023-03-19T04:49:37.280Z,3.00
2023-03-19T04:52:06.746Z,4.20
2023-03-19T04:54:35.695Z,3.80
2023-03-19T04:57:05.645Z,5.30
2023-03-19T04:59:34.545Z,3.40
2023-03-19T05:02:03.603Z,4.70
2023-03-19T05:04:32.602Z,3.70
2023-03-19T05:07:02.177Z,5.30
2023-03-19T05:09:31.273Z,7.70
2023-03-19T05:12:00.383Z,7.80
2023-03-19T05:14:29.457Z,5.10
2023-03-19T05:16:58.207Z,4.90
2023-03-19T05:19:27.122Z,5.10
2023-03-19T05:21:57.569Z,4.40
2023-03-19T05:24:26.662Z,4.40
2023-03-19T05:26:55.505Z,5.70
2023-03-19T05:29:24.605Z,5.50
2023-03-19T05:31:53.898Z,5.00
2023-03-19T05:34:23.116Z,5.40
2023-03-19T05:36:52.157Z,4.70
2023-03-19T05:39:21.424Z,5.10
2023-03-19T05:41:51.088Z,4.50
2023-03-19T05:44:20.248Z,4.50
2023-03-19T05:46:49.416Z,5.70
2023-03-19T05:49:18.356Z,4.90
2023-03-19T05:51:47.651Z,6.30
2023-03-19T05:54:16.688Z,4.60
2023-03-19T05:56:45.796Z,4.00
2023-03-19T05:59:15.157Z,5.30
2023-03-19T06:01:44.505Z,5.00
2023-03-19T06:04:13.872Z,4.80
2023-03-19T06:06:43.386Z,4.70
2023-03-19T06:09:12.394Z,6.40
2023-03-19T06:11:42.606Z,4.50
2023-03-19T06:14:12.028Z,4.50
2023-03-19T06:16:41.100Z,5.20
2023-03-19T06:19:09.814Z,5.40
2023-03-19T06:21:39.047Z,6.30
2023-03-19T06:24:08.232Z,6.00
2023-03-19T06:26:37.857Z,6.80
2023-03-19T06:29:07.255Z,7.10
2023-03-19T06:31:36.661Z,6.40
2023-03-19T06:34:05.724Z,7.90
2023-03-19T06:36:34.879Z,6.20
2023-03-19T06:39:03.809Z,5.40
2023-03-19T06:41:33.062Z,5.40
2023-03-19T06:44:02.726Z,7.10
2023-03-19T06:46:31.676Z,6.30
2023-03-19T06:49:00.738Z,7.70
2023-03-19T06:51:29.728Z,5.50
2023-03-19T06:53:58.505Z,5.80
2023-03-19T06:56:27.654Z,5.70
2023-03-19T06:58:56.942Z,6.10
2023-03-19T07:01:26.697Z,6.60
2023-03-19T07:03:57.970Z,7.20
2023-03-19T07:06:27.346Z,6.90
2023-03-19T07:08:56.494Z,8.00
2023-03-19T07:11:26.065Z,8.70
2023-03-19T07:13:55.481Z,5.30
2023-03-19T07:16:24.899Z,5.40
2023-03-19T07:18:54.597Z,5.20
2023-03-19T07:21:23.841Z,6.00
2023-03-19T07:23:52.821Z,6.70
2023-03-19T07:26:21.732Z,7.10
2023-03-19T07:28:51.995Z,8.90
2023-03-19T07:31:21.257Z,7.10
2023-03-19T07:33:50.178Z,7.30
2023-03-19T07:36:19.428Z,7.40
2023-03-19T07:38:48.557Z,7.50
2023-03-19T07:41:18.306Z,6.90
2023-03-19T07:43:48.203Z,7.30
2023-03-19T07:46:18.740Z,8.20
2023-03-19T07:48:48.667Z,8.00
2023-03-19T07:51:19.258Z,6.60
2023-03-19T07:53:48.720Z,7.40
2023-03-19T07:56:18.011Z,5.30
2023-03-19T07:58:47.715Z,8.50
2023-03-19T08:01:17.591Z,4.90
2023-03-19T08:03:49.260Z,6.80
2023-03-19T08:06:18.300Z,5.40
2023-03-19T08:08:47.149Z,6.10
2023-03-19T08:11:16.507Z,5.90
2023-03-19T08:13:45.767Z,6.40
2023-03-19T08:16:15.344Z,5.30
2023-03-19T08:18:44.471Z,6.20
2023-03-19T08:21:13.765Z,7.40
2023-03-19T08:23:43.073Z,6.10
2023-03-19T08:26:12.398Z,5.70
2023-03-19T08:28:41.469Z,7.50
2023-03-19T08:31:12.335Z,5.40
2023-03-19T08:33:42.398Z,5.80
2023-03-19T08:36:14.766Z,6.30
2023-03-19T08:38:44.672Z,6.00
2023-03-19T08:41:13.734Z,8.30
2023-03-19T08:43:42.955Z,6.10
2023-03-19T08:46:12.228Z,6.90
2023-03-19T08:48:41.639Z,8.20
2023-03-19T08:51:11.302Z,8.80
2023-03-19T08:53:40.566Z,5.80
2023-03-19T08:56:09.855Z,6.90
2023-03-19T08:58:40.468Z,7.60
2023-03-19T09:01:13.284Z,6.50
2023-03-19T09:03:45.571Z,8.10
2023-03-19T09:06:16.060Z,7.40
2023-03-19T09:08:45.289Z,7.80
2023-03-19T09:11:15.320Z,6.10
2023-03-19T09:13:44.879Z,6.90
2023-03-19T09:16:14.019Z,6.70
2023-03-19T09:18:43.259Z,8.10
2023-03-19T09:21:12.496Z,6.90
2023-03-19T09:23:41.713Z,7.70
2023-03-19T09:26:11.037Z,7.30
2023-03-19T09:28:40.143Z,7.80
2023-03-19T09:31:11.933Z,7.60
2023-03-19T09:33:41.249Z,6.00
2023-03-19T09:36:10.654Z,7.60
2023-03-19T09:38:40.383Z,7.30
2023-03-19T09:41:34.666Z,7.20
2023-03-19T09:44:11.297Z,9.20
2023-03-19T09:46:51.309Z,8.00
2023-03-19T09:49:27.466Z,8.00
2023-03-19T09:52:25.983Z,8.20
2023-03-19T09:54:58.727Z,7.30
2023-03-19T09:57:30.405Z,7.90
2023-03-19T09:59:59.471Z,11.50
2023-03-19T10:02:34.079Z,9.90
2023-03-19T10:05:16.936Z,6.60
2023-03-19T10:08:13.776Z,7.30
2023-03-19T10:11:03.470Z,8.60
2023-03-19T10:14:21.173Z,8.30
2023-03-19T10:16:53.784Z,8.40
2023-03-19T10:19:31.284Z,30.20
2023-03-19T10:22:07.721Z,11.80
2023-03-19T10:24:43.981Z,8.50
2023-03-19T10:27:16.360Z,8.60
2023-03-19T10:29:45.575Z,8.00
2023-03-19T10:32:20.086Z,9.40
2023-03-19T10:34:56.328Z,7.00
2023-03-19T10:37:30.784Z,6.00
2023-03-19T10:40:01.886Z,7.90
2023-03-19T10:42:52.867Z,6.40
2023-03-19T10:45:27.122Z,7.10
2023-03-19T10:48:02.168Z,9.90
2023-03-19T10:50:39.144Z,7.30
2023-03-19T10:53:27.879Z,6.80
2023-03-19T10:56:02.012Z,8.50
2023-03-19T10:58:33.370Z,6.50
2023-03-19T11:01:08.117Z,6.90
2023-03-19T11:03:41.327Z,7.50
2023-03-19T11:06:25.550Z,5.70
2023-03-19T11:08:58.942Z,8.50
2023-03-19T11:11:53.860Z,7.10
2023-03-19T11:14:45.056Z,8.50
2023-03-19T11:17:17.262Z,9.10
2023-03-19T11:19:58.126Z,7.70
2023-03-19T11:22:37.385Z,8.00
2023-03-19T11:25:27.715Z,7.80
2023-03-19T11:28:01.975Z,9.80
2023-03-19T11:30:40.394Z,9.90
2023-03-19T11:33:19.057Z,6.00
2023-03-19T11:36:14.508Z,8.60
2023-03-19T11:38:55.250Z,9.50
2023-03-19T11:41:43.207Z,8.40
2023-03-19T11:44:32.587Z,9.40
2023-03-19T11:47:26.809Z,8.30
2023-03-19T11:50:18.727Z,8.40
2023-03-19T11:53:03.304Z,9.10
2023-03-19T11:55:44.347Z,9.20
2023-03-19T11:58:41.232Z,8.50
2023-03-19T12:01:28.764Z,9.30
2023-03-19T12:04:01.490Z,10.30
2023-03-19T12:07:01.350Z,8.50
2023-03-19T12:09:46.300Z,8.80
2023-03-19T12:12:47.869Z,11.80
2023-03-19T12:15:53.252Z,8.80
2023-03-19T12:18:31.017Z,7.40
2023-03-19T12:21:02.730Z,8.60
2023-03-19T12:23:38.267Z,8.80
2023-03-19T12:26:18.274Z,8.70
2023-03-19T12:28:59.523Z,7.00
2023-03-19T12:31:31.810Z,8.70
2023-03-19T12:34:03.175Z,7.00
2023-03-19T12:36:37.993Z,9.30
2023-03-19T12:39:13.633Z,7.20
2023-03-19T12:41:44.896Z,9.70
2023-03-19T12:44:42.098Z,9.40
2023-03-19T12:47:31.558Z,10.20
2023-03-19T12:50:06.693Z,9.30
2023-03-19T12:52:39.007Z,9.50
2023-03-19T12:55:36.745Z,8.70
2023-03-19T12:58:19.878Z,8.00
2023-03-19T13:01:30.228Z,9.00
2023-03-19T13:04:39.809Z,8.00
2023-03-19T13:07:31.281Z,10.50
2023-03-19T13:10:14.199Z,11.40
2023-03-19T13:12:44.200Z,9.80
2023-03-19T13:15:24.797Z,8.70
2023-03-19T13:18:06.623Z,10.90
2023-03-19T13:21:17.527Z,12.10
2023-03-19T13:23:51.420Z,12.50
2023-03-19T13:26:20.716Z,9.40
2023-03-19T13:29:08.902Z,9.20
2023-03-19T13:31:38.827Z,7.60
2023-03-19T13:34:29.351Z,9.70
2023-03-19T13:37:01.422Z,7.50
2023-03-19T13:39:34.316Z,9.30
2023-03-19T13:42:33.684Z,7.30
2023-03-19T13:45:22.828Z,11.40
2023-03-19T13:47:52.524Z,9.50
2023-03-19T13:50:30.774Z,7.70
2023-03-19T13:53:35.539Z,9.50
2023-03-19T13:56:28.666Z,8.50
2023-03-19T13:59:17.798Z,8.30
2023-03-19T14:01:47.832Z,9.90
2023-03-19T14:04:31.365Z,7.60
2023-03-19T14:07:17.538Z,7.70
2023-03-19T14:10:05.166Z,9.60
2023-03-19T14:12:38.190Z,6.90
2023-03-19T14:15:10.302Z,9.00
2023-03-19T14:17:42.470Z,7.70
2023-03-19T14:20:12.570Z,8.10
2023-03-19T14:23:03.486Z,5.30
2023-03-19T14:26:05.473Z,5.30
2023-03-19T14:28:58.712Z,5.90
2023-03-19T14:31:31.031Z,4.50
2023-03-19T14:34:05.822Z,5.20
2023-03-19T14:36:39.230Z,7.30
2023-03-19T14:39:27.875Z,5.20
2023-03-19T14:42:03.612Z,5.90
2023-03-19T14:44:50.138Z,6.20
2023-03-19T14:47:37.722Z,5.60
2023-03-19T14:50:13.056Z,5.20
2023-03-19T14:52:50.445Z,5.50
2023-03-19T14:55:19.344Z,4.70
2023-03-19T14:57:49.010Z,4.60
2023-03-19T15:00:20.598Z,5.00
2023-03-19T15:02:51.576Z,4.60
2023-03-19T15:05:31.649Z,3.40
2023-03-19T15:08:07.386Z,2.50
2023-03-19T15:10:52.974Z,3.10
2023-03-19T15:13:33.133Z,2.20
2023-03-19T15:16:11.078Z,1.90
2023-03-19T15:18:40.210Z,2.40
2023-03-19T15:21:09.785Z,2.10
2023-03-19T15:23:42.225Z,2.50
2023-03-19T15:26:12.610Z,2.20
2023-03-19T15:28:54.064Z,2.80
2023-03-19T15:31:49.554Z,2.70
2023-03-19T15:34:28.432Z,2.80
2023-03-19T15:37:04.543Z,2.20
2023-03-19T15:39:41.298Z,2.40
2023-03-19T15:42:11.453Z,2.20
2023-03-19T15:44:47.591Z,2.80
2023-03-19T15:47:26.841Z,2.80
2023-03-19T15:50:01.890Z,3.00
2023-03-19T15:52:35.198Z,2.70
2023-03-19T15:55:05.432Z,3.00
2023-03-19T15:57:37.243Z,3.50
2023-03-19T16:00:12.916Z,4.60
2023-03-19T16:02:46.795Z,3.10
2023-03-19T16:05:28.855Z,2.90
2023-03-19T16:08:19.296Z,4.00
2023-03-19T16:10:49.510Z,4.90
2023-03-19T16:13:31.357Z,4.70
2023-03-19T16:16:27.164Z,4.90
2023-03-19T16:18:58.744Z,4.20
2023-03-19T16:21:54.996Z,5.60
2023-03-19T16:24:41.082Z,5.10
2023-03-19T16:27:15.510Z,3.00
2023-03-19T16:29:48.077Z,4.50
2023-03-19T16:32:32.432Z,3.70
2023-03-19T16:35:05.931Z,2.60
2023-03-19T16:37:35.202Z,4.50
2023-03-19T16:40:27.989Z,3.50
2023-03-19T16:43:08.208Z,3.30
2023-03-19T16:45:38.053Z,4.60
2023-03-19T16:48:09.360Z,3.60
2023-03-19T16:50:41.565Z,5.20
2023-03-19T16:53:19.768Z,6.70
2023-03-19T16:55:50.789Z,7.10
2023-03-19T16:58:37.488Z,6.30
2023-03-19T17:01:17.577Z,3.90
2023-03-19T17:03:48.487Z,3.90
2023-03-19T17:06:20.362Z,4.40
2023-03-19T17:08:49.969Z,5.10
2023-03-19T17:11:35.358Z,4.30
2023-03-19T17:14:07.395Z,4.50
2023-03-19T17:16:37.964Z,5.10
2023-03-19T17:19:16.881Z,7.00
2023-03-19T17:21:53.394Z,10.50
2023-03-19T17:24:25.287Z,12.00
2023-03-19T17:26:56.740Z,11.00
2023-03-19T17:29:26.599Z,8.00
2023-03-19T17:31:58.295Z,8.70
2023-03-19T17:34:32.413Z,6.60
2023-03-19T17:37:03.838Z,7.90
2023-03-19T17:39:33.472Z,6.40
2023-03-19T17:42:03.731Z,5.10
2023-03-19T17:44:33.052Z,11.60
2023-03-19T17:47:02.402Z,8.30
2023-03-19T17:49:35.028Z,13.30
2023-03-19T17:52:04.663Z,15.50
2023-03-19T17:54:33.920Z,21.00
2023-03-19T17:57:03.453Z,17.10
2023-03-19T17:59:32.543Z,19.20
2023-03-19T18:02:01.788Z,10.50
2023-03-19T18:04:31.354Z,9.20
2023-03-19T18:07:00.809Z,7.10
2023-03-19T18:09:30.776Z,4.70
2023-03-19T18:12:00.209Z,5.10
2023-03-19T18:14:31.971Z,6.20
2023-03-19T18:17:02.473Z,5.60
2023-03-19T18:19:37.927Z,7.90
2023-03-19T18:22:16.005Z,5.40
2023-03-19T18:24:46.643Z,5.20
2023-03-19T18:27:16.917Z,4.70
2023-03-19T18:29:46.468Z,4.80
2023-03-19T18:32:23.106Z,5.60
2023-03-19T18:34:52.905Z,8.20
2023-03-19T18:37:24.753Z,6.80
2023-03-19T18:39:54.467Z,7.50
2023-03-19T18:42:24.750Z,6.60
2023-03-19T18:44:54.566Z,6.40
2023-03-19T18:47:24.466Z,6.80
2023-03-19T18:49:58.291Z,8.50
2023-03-19T18:52:28.440Z,9.40
2023-03-19T18:54:58.078Z,8.80
2023-03-19T18:57:28.300Z,7.60
2023-03-19T18:59:58.046Z,7.60
2023-03-19T19:02:37.749Z,7.50
2023-03-19T19:05:07.682Z,9.60
2023-03-19T19:07:39.244Z,8.00
2023-03-19T19:10:10.898Z,7.60
2023-03-19T19:12:47.044Z,8.20
2023-03-19T19:15:37.353Z,8.20
2023-03-19T19:18:25.151Z,7.50
2023-03-19T19:20:57.366Z,7.60
2023-03-19T19:23:28.235Z,8.70
2023-03-19T19:25:57.833Z,7.70
2023-03-19T19:28:39.877Z,6.70
2023-03-19T19:31:25.189Z,7.00
2023-03-19T19:33:57.877Z,6.50
2023-03-19T19:36:29.125Z,7.00
2023-03-19T19:38:59.782Z,7.40
2023-03-19T19:41:29.243Z,9.40
2023-03-19T19:44:02.128Z,7.60
2023-03-19T19:46:33.844Z,7.90
2023-03-19T19:49:02.897Z,7.40
2023-03-19T19:51:33.483Z,5.80
2023-03-19T19:54:02.945Z,7.80
2023-03-19T19:56:32.534Z,7.80
2023-03-19T19:59:04.508Z,7.50
2023-03-19T20:01:36.782Z,6.70
2023-03-19T20:04:07.178Z,5.70
2023-03-19T20:06:37.547Z,4.90
2023-03-19T20:09:07.440Z,7.60
2023-03-19T20:11:37.012Z,6.60
2023-03-19T20:14:06.676Z,8.20
2023-03-19T20:16:36.839Z,10.30
2023-03-19T20:19:07.675Z,9.10
2023-03-19T20:21:37.514Z,7.40
2023-03-19T20:24:07.940Z,7.80
2023-03-19T20:26:38.205Z,8.30
2023-03-19T20:29:10.070Z,6.30
2023-03-19T20:31:40.096Z,6.10
2023-03-19T20:34:28.621Z,6.30
2023-03-19T20:37:03.690Z,6.50
2023-03-19T20:39:35.469Z,18.10
2023-03-19T20:42:06.543Z,6.90
2023-03-19T20:44:36.775Z,6.60
2023-03-19T20:47:22.094Z,3.90
2023-03-19T20:49:53.998Z,3.60
2023-03-19T20:52:24.100Z,4.90
2023-03-19T20:54:54.017Z,5.50
2023-03-19T20:57:31.562Z,6.80
2023-03-19T21:00:13.049Z,4.80
2023-03-19T21:02:44.043Z,4.10
2023-03-19T21:05:17.760Z,4.00
2023-03-19T21:07:50.261Z,6.40
2023-03-19T21:10:39.495Z,4.90
2023-03-19T21:13:14.229Z,4.50
2023-03-19T21:15:44.964Z,4.60
2023-03-19T21:18:14.882Z,4.00
2023-03-19T21:20:46.938Z,5.50
2023-03-19T21:23:32.402Z,5.30
2023-03-19T21:26:06.806Z,5.00
2023-03-19T21:28:39.004Z,5.40
2023-03-19T21:31:14.850Z,4.80
2023-03-19T21:33:44.552Z,5.10
2023-03-19T21:36:14.331Z,4.40
2023-03-19T21:38:44.344Z,5.00
2023-03-19T21:41:32.462Z,6.70
2023-03-19T21:44:14.475Z,4.40
2023-03-19T21:46:47.491Z,6.20
2023-03-19T21:49:17.551Z,5.50
2023-03-19T21:51:47.728Z,6.20
2023-03-19T21:54:17.410Z,8.80
2023-03-19T21:56:46.782Z,6.80
2023-03-19T21:59:22.760Z,6.60
2023-03-19T22:01:52.678Z,4.90
2023-03-19T22:04:21.804Z,5.50
2023-03-19T22:06:50.910Z,3.80
2023-03-19T22:09:20.792Z,6.50
2023-03-19T22:11:51.481Z,8.10
2023-03-19T22:14:27.191Z,5.50
2023-03-19T22:16:57.685Z,4.80
2023-03-19T22:19:29.002Z,5.00
2023-03-19T22:21:58.590Z,5.80
2023-03-19T22:24:27.572Z,8.10
2023-03-19T22:26:58.615Z,6.90
2023-03-19T22:29:28.296Z,6.60
2023-03-19T22:31:57.428Z,5.50
2023-03-19T22:34:28.449Z,8.10
2023-03-19T22:36:57.660Z,6.30
2023-03-19T22:39:26.754Z,4.90
2023-03-19T22:41:55.498Z,5.30
2023-03-19T22:44:32.097Z,5.70
2023-03-19T22:47:02.988Z,5.60
2023-03-19T22:49:32.414Z,5.70
2023-03-19T22:52:02.077Z,6.10
2023-03-19T22:54:31.160Z,6.70
2023-03-19T22:57:00.986Z,5.50
2023-03-19T22:59:30.454Z,5.90
2023-03-19T23:02:01.409Z,6.60
2023-03-19T23:04:32.595Z,6.30
2023-03-19T23:07:02.026Z,4.80
2023-03-19T23:09:34.185Z,5.50
2023-03-19T23:12:05.283Z,5.90
2023-03-19T23:14:34.541Z,8.10
2023-03-19T23:17:14.955Z,7.20
2023-03-19T23:19:44.380Z,7.30
2023-03-19T23:22:17.048Z,7.50
2023-03-19T23:24:45.828Z,5.30
2023-03-19T23:27:26.987Z,5.50
2023-03-19T23:29:56.375Z,6.00
2023-03-19T23:32:25.301Z,4.70
2023-03-19T23:35:00.632Z,5.00
2023-03-19T23:37:30.797Z,4.20
2023-03-19T23:39:59.825Z,6.60
2023-03-19T23:42:31.980Z,6.40
2023-03-19T23:45:04.103Z,5.80
2023-03-19T23:47:34.427Z,4.30
2023-03-19T23:50:04.351Z,5.70
2023-03-19T23:52:33.425Z,5.80
2023-03-19T23:55:03.422Z,4.60
2023-03-19T23:57:32.140Z,6.10
